sensor_id;sensor_type;location;lat;lon;timestamp;P1;durP1;ratioP1;P2;durP2;ratioP2
45342;SDS011;31077;50.872;4.352;2023-03-01T00:01:47;6.00;;;4.13;;
45342;SDS011;31077;50.872;4.352;2023-03-01T00:04:13;6.38;;;4.32;;
45342;SDS011;31077;50.872;4.352;2023-03-01T00:06:39;7.15;;;4.30;;
45342;SDS011;31077;50.872;4.352;2023-03-01T00:09:07;8.75;;;3.97;;
45342;SDS011;31077;50.872;4.352;2023-03-01T00:11:33;4.60;;;3.45;;
45342;SDS011;31077;50.872;4.352;2023-03-01T00:13:59;5.18;;;3.55;;
45342;SDS011;31077;50.872;4.352;2023-03-01T00:16:27;4.95;;;3.72;;
45342;SDS011;31077;50.872;4.352;2023-03-01T00:18:55;5.15;;;3.92;;
45342;SDS011;31077;50.872;4.352;2023-03-01T00:21:22;6.65;;;4.00;;
45342;SDS011;31077;50.872;4.352;2023-03-01T00:23:49;8.88;;;4.38;;
45342;SDS011;31077;50.872;4.352;2023-03-01T00:26:16;5.28;;;4.07;;
45342;SDS011;31077;50.872;4.352;2023-03-01T00:28:42;6.13;;;4.20;;
45342;SDS011;31077;50.872;4.352;2023-03-01T00:31:10;5.22;;;3.88;;
45342;SDS011;31077;50.872;4.352;2023-03-01T00:33:41;5.97;;;4.15;;
45342;SDS011;31077;50.872;4.352;2023-03-01T00:36:07;5.93;;;4.13;;
45342;SDS011;31077;50.872;4.352;2023-03-01T00:38:35;6.75;;;4.53;;
45342;SDS011;31077;50.872;4.352;2023-03-01T00:41:05;7.55;;;4.80;;
45342;SDS011;31077;50.872;4.352;2023-03-01T00:43:32;5.55;;;4.10;;
45342;SDS011;31077;50.872;4.352;2023-03-01T00:46:02;6.53;;;4.20;;
45342;SDS011;31077;50.872;4.352;2023-03-01T00:48:35;5.50;;;4.05;;
45342;SDS011;31077;50.872;4.352;2023-03-01T00:51:09;5.45;;;4.03;;
45342;SDS011;31077;50.872;4.352;2023-03-01T00:53:54;5.25;;;4.13;;
45342;SDS011;31077;50.872;4.352;2023-03-01T00:56:21;6.40;;;4.43;;
45342;SDS011;31077;50.872;4.352;2023-03-01T00:58:47;9.15;;;3.72;;
45342;SDS011;31077;50.872;4.352;2023-03-01T01:01:14;5.25;;;3.38;;
45342;SDS011;31077;50.872;4.352;2023-03-01T01:03:49;4.72;;;3.83;;
45342;SDS011;31077;50.872;4.352;2023-03-01T01:06:19;4.88;;;3.78;;
45342;SDS011;31077;50.872;4.352;2023-03-01T01:08:46;7.10;;;4.00;;
45342;SDS011;31077;50.872;4.352;2023-03-01T01:11:13;5.63;;;3.75;;
45342;SDS011;31077;50.872;4.352;2023-03-01T01:13:39;4.70;;;3.60;;
45342;SDS011;31077;50.872;4.352;2023-03-01T01:16:06;4.43;;;3.38;;
45342;SDS011;31077;50.872;4.352;2023-03-01T01:18:32;5.07;;;3.88;;
45342;SDS011;31077;50.872;4.352;2023-03-01T01:21:02;4.45;;;3.25;;
45342;SDS011;31077;50.872;4.352;2023-03-01T01:23:30;5.07;;;3.63;;
45342;SDS011;31077;50.872;4.352;2023-03-01T01:25:56;6.05;;;4.25;;
45342;SDS011;31077;50.872;4.352;2023-03-01T01:28:21;5.65;;;3.92;;
45342;SDS011;31077;50.872;4.352;2023-03-01T01:30:47;4.78;;;3.80;;
45342;SDS011;31077;50.872;4.352;2023-03-01T01:33:13;8.20;;;3.72;;
45342;SDS011;31077;50.872;4.352;2023-03-01T01:35:39;4.65;;;3.60;;
45342;SDS011;31077;50.872;4.352;2023-03-01T01:38:04;4.88;;;3.63;;
45342;SDS011;31077;50.872;4.352;2023-03-01T01:40:30;4.90;;;3.58;;
45342;SDS011;31077;50.872;4.352;2023-03-01T01:42:56;4.82;;;3.85;;
45342;SDS011;31077;50.872;4.352;2023-03-01T01:45:30;4.50;;;3.22;;
45342;SDS011;31077;50.872;4.352;2023-03-01T01:48:02;4.72;;;3.60;;
45342;SDS011;31077;50.872;4.352;2023-03-01T01:50:31;4.95;;;3.60;;
45342;SDS011;31077;50.872;4.352;2023-03-01T01:53:09;6.97;;;3.60;;
45342;SDS011;31077;50.872;4.352;2023-03-01T01:55:42;5.45;;;3.50;;
45342;SDS011;31077;50.872;4.352;2023-03-01T01:58:11;6.03;;;4.00;;
45342;SDS011;31077;50.872;4.352;2023-03-01T02:00:40;5.72;;;4.18;;
45342;SDS011;31077;50.872;4.352;2023-03-01T02:03:09;5.20;;;3.30;;
45342;SDS011;31077;50.872;4.352;2023-03-01T02:05:50;5.13;;;3.78;;
45342;SDS011;31077;50.872;4.352;2023-03-01T02:08:20;4.78;;;3.92;;
45342;SDS011;31077;50.872;4.352;2023-03-01T02:10:48;5.22;;;3.75;;
45342;SDS011;31077;50.872;4.352;2023-03-01T02:13:15;4.30;;;3.53;;
45342;SDS011;31077;50.872;4.352;2023-03-01T02:15:41;6.35;;;3.33;;
45342;SDS011;31077;50.872;4.352;2023-03-01T02:18:09;5.50;;;3.42;;
45342;SDS011;31077;50.872;4.352;2023-03-01T02:23:15;3.65;;;3.13;;
45342;SDS011;31077;50.872;4.352;2023-03-01T02:30:58;4.15;;;3.42;;
45342;SDS011;31077;50.872;4.352;2023-03-01T02:33:43;4.55;;;3.50;;
45342;SDS011;31077;50.872;4.352;2023-03-01T02:36:12;6.60;;;3.42;;
45342;SDS011;31077;50.872;4.352;2023-03-01T02:38:43;4.30;;;3.35;;
45342;SDS011;31077;50.872;4.352;2023-03-01T02:41:10;5.00;;;3.30;;
45342;SDS011;31077;50.872;4.352;2023-03-01T02:43:40;5.75;;;3.42;;
45342;SDS011;31077;50.872;4.352;2023-03-01T02:46:08;4.72;;;3.38;;
45342;SDS011;31077;50.872;4.352;2023-03-01T02:48:40;4.07;;;3.25;;
45342;SDS011;31077;50.872;4.352;2023-03-01T02:56:52;4.47;;;3.30;;
45342;SDS011;31077;50.872;4.352;2023-03-01T02:59:19;4.75;;;3.28;;
45342;SDS011;31077;50.872;4.352;2023-03-01T03:01:47;3.88;;;3.17;;
45342;SDS011;31077;50.872;4.352;2023-03-01T03:04:15;6.82;;;3.55;;
45342;SDS011;31077;50.872;4.352;2023-03-01T03:06:43;4.20;;;3.25;;
45342;SDS011;31077;50.872;4.352;2023-03-01T03:09:10;6.68;;;2.97;;
45342;SDS011;31077;50.872;4.352;2023-03-01T03:11:37;4.50;;;3.35;;
45342;SDS011;31077;50.872;4.352;2023-03-01T03:14:04;3.42;;;3.03;;
45342;SDS011;31077;50.872;4.352;2023-03-01T03:16:30;5.50;;;3.50;;
45342;SDS011;31077;50.872;4.352;2023-03-01T03:18:56;3.85;;;2.88;;
45342;SDS011;31077;50.872;4.352;2023-03-01T03:21:31;4.50;;;3.47;;
45342;SDS011;31077;50.872;4.352;2023-03-01T03:23:57;5.72;;;3.53;;
45342;SDS011;31077;50.872;4.352;2023-03-01T03:26:23;4.45;;;3.13;;
45342;SDS011;31077;50.872;4.352;2023-03-01T03:28:49;4.18;;;3.00;;
45342;SDS011;31077;50.872;4.352;2023-03-01T03:31:15;4.22;;;3.50;;
45342;SDS011;31077;50.872;4.352;2023-03-01T03:33:41;4.78;;;3.15;;
45342;SDS011;31077;50.872;4.352;2023-03-01T03:36:07;3.95;;;3.10;;
45342;SDS011;31077;50.872;4.352;2023-03-01T03:38:37;3.88;;;2.90;;
45342;SDS011;31077;50.872;4.352;2023-03-01T03:41:05;3.80;;;3.00;;
45342;SDS011;31077;50.872;4.352;2023-03-01T03:43:33;4.53;;;3.05;;
45342;SDS011;31077;50.872;4.352;2023-03-01T03:46:01;3.88;;;2.90;;
45342;SDS011;31077;50.872;4.352;2023-03-01T03:48:31;3.72;;;2.92;;
45342;SDS011;31077;50.872;4.352;2023-03-01T03:51:00;4.60;;;3.40;;
45342;SDS011;31077;50.872;4.352;2023-03-01T03:53:26;6.10;;;4.03;;
45342;SDS011;31077;50.872;4.352;2023-03-01T03:55:53;4.85;;;3.30;;
45342;SDS011;31077;50.872;4.352;2023-03-01T03:58:21;4.47;;;3.05;;
45342;SDS011;31077;50.872;4.352;2023-03-01T04:00:49;6.88;;;3.63;;
45342;SDS011;31077;50.872;4.352;2023-03-01T04:03:17;4.22;;;3.40;;
45342;SDS011;31077;50.872;4.352;2023-03-01T04:05:43;4.00;;;3.03;;
45342;SDS011;31077;50.872;4.352;2023-03-01T04:08:10;4.22;;;3.15;;
45342;SDS011;31077;50.872;4.352;2023-03-01T04:10:40;4.82;;;3.47;;
45342;SDS011;31077;50.872;4.352;2023-03-01T04:13:11;4.10;;;3.30;;
45342;SDS011;31077;50.872;4.352;2023-03-01T04:15:39;3.15;;;2.85;;
45342;SDS011;31077;50.872;4.352;2023-03-01T04:18:06;4.80;;;3.63;;
45342;SDS011;31077;50.872;4.352;2023-03-01T04:20:33;4.45;;;2.92;;
45342;SDS011;31077;50.872;4.352;2023-03-01T04:23:01;3.58;;;3.00;;
45342;SDS011;31077;50.872;4.352;2023-03-01T04:25:41;4.97;;;3.40;;
45342;SDS011;31077;50.872;4.352;2023-03-01T04:28:10;4.65;;;3.40;;
45342;SDS011;31077;50.872;4.352;2023-03-01T04:30:37;12.57;;;3.35;;
45342;SDS011;31077;50.872;4.352;2023-03-01T04:33:06;6.20;;;3.25;;
45342;SDS011;31077;50.872;4.352;2023-03-01T04:35:34;3.38;;;2.88;;
45342;SDS011;31077;50.872;4.352;2023-03-01T04:38:00;4.28;;;3.15;;
45342;SDS011;31077;50.872;4.352;2023-03-01T04:40:26;6.47;;;3.30;;
45342;SDS011;31077;50.872;4.352;2023-03-01T04:42:52;4.35;;;3.22;;
45342;SDS011;31077;50.872;4.352;2023-03-01T04:45:18;4.28;;;3.20;;
45342;SDS011;31077;50.872;4.352;2023-03-01T04:47:45;4.50;;;3.13;;
45342;SDS011;31077;50.872;4.352;2023-03-01T04:50:12;4.95;;;3.13;;
45342;SDS011;31077;50.872;4.352;2023-03-01T04:52:40;4.97;;;3.03;;
45342;SDS011;31077;50.872;4.352;2023-03-01T04:55:06;4.28;;;3.33;;
45342;SDS011;31077;50.872;4.352;2023-03-01T04:57:32;5.10;;;3.10;;
45342;SDS011;31077;50.872;4.352;2023-03-01T04:59:58;3.92;;;2.90;;
45342;SDS011;31077;50.872;4.352;2023-03-01T05:02:24;4.93;;;3.25;;
45342;SDS011;31077;50.872;4.352;2023-03-01T05:04:50;4.65;;;3.35;;
45342;SDS011;31077;50.872;4.352;2023-03-01T05:07:16;4.70;;;3.08;;
45342;SDS011;31077;50.872;4.352;2023-03-01T05:09:47;4.05;;;3.33;;
45342;SDS011;31077;50.872;4.352;2023-03-01T05:12:13;5.65;;;3.38;;
45342;SDS011;31077;50.872;4.352;2023-03-01T05:14:40;4.68;;;3.17;;
45342;SDS011;31077;50.872;4.352;2023-03-01T05:17:06;3.67;;;2.90;;
45342;SDS011;31077;50.872;4.352;2023-03-01T05:19:33;4.50;;;3.00;;
45342;SDS011;31077;50.872;4.352;2023-03-01T05:21:59;3.58;;;3.00;;
45342;SDS011;31077;50.872;4.352;2023-03-01T05:27:35;3.47;;;2.92;;
45342;SDS011;31077;50.872;4.352;2023-03-01T05:30:02;3.42;;;3.00;;
45342;SDS011;31077;50.872;4.352;2023-03-01T05:32:39;5.22;;;3.10;;
45342;SDS011;31077;50.872;4.352;2023-03-01T05:35:12;7.75;;;3.55;;
45342;SDS011;31077;50.872;4.352;2023-03-01T05:37:43;8.57;;;3.20;;
45342;SDS011;31077;50.872;4.352;2023-03-01T05:40:11;7.07;;;3.17;;
45342;SDS011;31077;50.872;4.352;2023-03-01T05:42:47;4.80;;;3.13;;
45342;SDS011;31077;50.872;4.352;2023-03-01T05:45:17;7.40;;;3.22;;
45342;SDS011;31077;50.872;4.352;2023-03-01T05:47:45;5.15;;;3.33;;
45342;SDS011;31077;50.872;4.352;2023-03-01T05:50:13;5.47;;;3.10;;
45342;SDS011;31077;50.872;4.352;2023-03-01T05:52:44;10.95;;;3.10;;
45342;SDS011;31077;50.872;4.352;2023-03-01T05:55:19;7.50;;;3.25;;
45342;SDS011;31077;50.872;4.352;2023-03-01T05:57:46;7.35;;;3.00;;
45342;SDS011;31077;50.872;4.352;2023-03-01T06:00:13;4.97;;;3.40;;
45342;SDS011;31077;50.872;4.352;2023-03-01T06:02:40;7.30;;;3.50;;
45342;SDS011;31077;50.872;4.352;2023-03-01T06:05:07;9.52;;;2.80;;
45342;SDS011;31077;50.872;4.352;2023-03-01T06:07:35;4.35;;;2.80;;
45342;SDS011;31077;50.872;4.352;2023-03-01T06:10:01;5.03;;;2.85;;
45342;SDS011;31077;50.872;4.352;2023-03-01T06:12:31;6.57;;;2.80;;
45342;SDS011;31077;50.872;4.352;2023-03-01T06:14:58;8.50;;;3.35;;
45342;SDS011;31077;50.872;4.352;2023-03-01T06:17:24;5.57;;;3.22;;
45342;SDS011;31077;50.872;4.352;2023-03-01T06:19:50;4.78;;;3.38;;
45342;SDS011;31077;50.872;4.352;2023-03-01T06:22:16;5.55;;;3.10;;
45342;SDS011;31077;50.872;4.352;2023-03-01T06:24:42;4.95;;;3.05;;
45342;SDS011;31077;50.872;4.352;2023-03-01T06:27:07;5.47;;;3.47;;
45342;SDS011;31077;50.872;4.352;2023-03-01T06:29:33;4.75;;;2.80;;
45342;SDS011;31077;50.872;4.352;2023-03-01T06:31:59;4.03;;;2.85;;
45342;SDS011;31077;50.872;4.352;2023-03-01T06:34:25;5.22;;;2.53;;
45342;SDS011;31077;50.872;4.352;2023-03-01T06:36:51;5.82;;;3.25;;
45342;SDS011;31077;50.872;4.352;2023-03-01T06:39:16;4.53;;;2.70;;
45342;SDS011;31077;50.872;4.352;2023-03-01T06:41:43;4.70;;;2.58;;
45342;SDS011;31077;50.872;4.352;2023-03-01T06:44:09;3.92;;;2.80;;
45342;SDS011;31077;50.872;4.352;2023-03-01T06:46:35;3.25;;;2.72;;
45342;SDS011;31077;50.872;4.352;2023-03-01T06:49:03;4.47;;;2.90;;
45342;SDS011;31077;50.872;4.352;2023-03-01T06:51:32;4.03;;;2.90;;
45342;SDS011;31077;50.872;4.352;2023-03-01T06:53:58;4.43;;;2.92;;
45342;SDS011;31077;50.872;4.352;2023-03-01T06:56:24;4.47;;;2.88;;
45342;SDS011;31077;50.872;4.352;2023-03-01T06:58:50;4.60;;;3.03;;
45342;SDS011;31077;50.872;4.352;2023-03-01T07:01:16;4.72;;;2.92;;
45342;SDS011;31077;50.872;4.352;2023-03-01T07:03:41;4.20;;;2.85;;
45342;SDS011;31077;50.872;4.352;2023-03-01T07:06:09;4.45;;;2.80;;
45342;SDS011;31077;50.872;4.352;2023-03-01T07:08:35;4.15;;;2.90;;
45342;SDS011;31077;50.872;4.352;2023-03-01T07:11:01;3.83;;;2.85;;
45342;SDS011;31077;50.872;4.352;2023-03-01T07:13:28;3.40;;;2.60;;
45342;SDS011;31077;50.872;4.352;2023-03-01T07:15:54;6.80;;;3.00;;
45342;SDS011;31077;50.872;4.352;2023-03-01T07:18:21;5.50;;;2.92;;
45342;SDS011;31077;50.872;4.352;2023-03-01T07:20:46;6.18;;;3.10;;
45342;SDS011;31077;50.872;4.352;2023-03-01T07:23:12;4.35;;;3.08;;
45342;SDS011;31077;50.872;4.352;2023-03-01T07:25:38;8.15;;;3.13;;
45342;SDS011;31077;50.872;4.352;2023-03-01T07:28:04;6.75;;;2.95;;
45342;SDS011;31077;50.872;4.352;2023-03-01T07:30:30;8.40;;;3.03;;
45342;SDS011;31077;50.872;4.352;2023-03-01T07:32:56;13.30;;;4.20;;
45342;SDS011;31077;50.872;4.352;2023-03-01T07:35:23;6.75;;;3.22;;
45342;SDS011;31077;50.872;4.352;2023-03-01T07:37:50;9.00;;;3.10;;
45342;SDS011;31077;50.872;4.352;2023-03-01T07:40:17;7.78;;;3.45;;
45342;SDS011;31077;50.872;4.352;2023-03-01T07:42:43;5.32;;;3.20;;
45342;SDS011;31077;50.872;4.352;2023-03-01T07:45:09;5.75;;;2.92;;
45342;SDS011;31077;50.872;4.352;2023-03-01T07:47:35;4.47;;;3.15;;
45342;SDS011;31077;50.872;4.352;2023-03-01T07:50:02;4.07;;;3.05;;
45342;SDS011;31077;50.872;4.352;2023-03-01T07:52:28;4.57;;;2.47;;
45342;SDS011;31077;50.872;4.352;2023-03-01T07:54:55;5.57;;;2.90;;
45342;SDS011;31077;50.872;4.352;2023-03-01T07:57:21;5.93;;;2.83;;
45342;SDS011;31077;50.872;4.352;2023-03-01T07:59:47;8.88;;;2.95;;
45342;SDS011;31077;50.872;4.352;2023-03-01T08:02:13;4.28;;;3.08;;
45342;SDS011;31077;50.872;4.352;2023-03-01T08:04:40;4.63;;;2.80;;
45342;SDS011;31077;50.872;4.352;2023-03-01T08:07:06;7.95;;;3.22;;
45342;SDS011;31077;50.872;4.352;2023-03-01T08:09:34;5.03;;;2.90;;
45342;SDS011;31077;50.872;4.352;2023-03-01T08:12:00;4.82;;;3.13;;
45342;SDS011;31077;50.872;4.352;2023-03-01T08:14:26;4.82;;;2.80;;
45342;SDS011;31077;50.872;4.352;2023-03-01T08:16:52;7.35;;;3.28;;
45342;SDS011;31077;50.872;4.352;2023-03-01T08:19:17;5.28;;;3.22;;
45342;SDS011;31077;50.872;4.352;2023-03-01T08:21:43;4.63;;;2.83;;
45342;SDS011;31077;50.872;4.352;2023-03-01T08:24:09;4.43;;;3.10;;
45342;SDS011;31077;50.872;4.352;2023-03-01T08:26:35;6.80;;;3.38;;
45342;SDS011;31077;50.872;4.352;2023-03-01T08:29:01;4.47;;;2.97;;
45342;SDS011;31077;50.872;4.352;2023-03-01T08:31:31;4.05;;;2.88;;
45342;SDS011;31077;50.872;4.352;2023-03-01T08:34:01;6.60;;;3.33;;
45342;SDS011;31077;50.872;4.352;2023-03-01T08:36:38;3.83;;;2.78;;
45342;SDS011;31077;50.872;4.352;2023-03-01T08:39:08;5.25;;;3.22;;
45342;SDS011;31077;50.872;4.352;2023-03-01T08:41:37;4.82;;;3.00;;
45342;SDS011;31077;50.872;4.352;2023-03-01T08:44:04;4.72;;;3.20;;
45342;SDS011;31077;50.872;4.352;2023-03-01T08:46:32;3.55;;;2.70;;
45342;SDS011;31077;50.872;4.352;2023-03-01T08:49:09;4.18;;;3.10;;
45342;SDS011;31077;50.872;4.352;2023-03-01T08:51:37;4.78;;;3.55;;
45342;SDS011;31077;50.872;4.352;2023-03-01T08:54:04;5.88;;;3.22;;
45342;SDS011;31077;50.872;4.352;2023-03-01T08:56:30;5.63;;;3.50;;
45342;SDS011;31077;50.872;4.352;2023-03-01T08:58:56;5.18;;;3.25;;
45342;SDS011;31077;50.872;4.352;2023-03-01T09:01:22;5.35;;;3.42;;
45342;SDS011;31077;50.872;4.352;2023-03-01T09:03:48;6.72;;;3.17;;
45342;SDS011;31077;50.872;4.352;2023-03-01T09:06:14;4.63;;;3.20;;
45342;SDS011;31077;50.872;4.352;2023-03-01T09:08:41;4.72;;;3.72;;
45342;SDS011;31077;50.872;4.352;2023-03-01T09:11:13;4.25;;;3.05;;
45342;SDS011;31077;50.872;4.352;2023-03-01T09:13:44;5.80;;;3.60;;
45342;SDS011;31077;50.872;4.352;2023-03-01T09:16:11;3.70;;;2.80;;
45342;SDS011;31077;50.872;4.352;2023-03-01T09:18:41;5.70;;;3.58;;
45342;SDS011;31077;50.872;4.352;2023-03-01T09:21:08;5.95;;;3.92;;
45342;SDS011;31077;50.872;4.352;2023-03-01T09:23:36;5.57;;;3.20;;
45342;SDS011;31077;50.872;4.352;2023-03-01T09:26:14;6.13;;;3.13;;
45342;SDS011;31077;50.872;4.352;2023-03-01T09:28:46;4.68;;;3.20;;
45342;SDS011;31077;50.872;4.352;2023-03-01T09:31:13;4.88;;;3.45;;
45342;SDS011;31077;50.872;4.352;2023-03-01T09:33:40;5.75;;;3.65;;
45342;SDS011;31077;50.872;4.352;2023-03-01T09:36:07;6.22;;;3.35;;
45342;SDS011;31077;50.872;4.352;2023-03-01T09:38:39;4.93;;;3.40;;
45342;SDS011;31077;50.872;4.352;2023-03-01T09:41:32;8.60;;;4.05;;
45342;SDS011;31077;50.872;4.352;2023-03-01T09:44:02;5.63;;;3.53;;
45342;SDS011;31077;50.872;4.352;2023-03-01T09:46:40;4.53;;;3.10;;
45342;SDS011;31077;50.872;4.352;2023-03-01T09:49:14;9.25;;;3.42;;
45342;SDS011;31077;50.872;4.352;2023-03-01T09:51:46;5.35;;;3.80;;
45342;SDS011;31077;50.872;4.352;2023-03-01T09:54:33;5.82;;;3.28;;
45342;SDS011;31077;50.872;4.352;2023-03-01T10:05:43;7.35;;;3.58;;
45342;SDS011;31077;50.872;4.352;2023-03-01T10:08:41;6.10;;;3.45;;
45342;SDS011;31077;50.872;4.352;2023-03-01T10:11:27;4.75;;;3.65;;
45342;SDS011;31077;50.872;4.352;2023-03-01T10:14:09;7.75;;;4.13;;
45342;SDS011;31077;50.872;4.352;2023-03-01T10:16:56;6.70;;;3.20;;
45342;SDS011;31077;50.872;4.352;2023-03-01T10:22:11;4.75;;;3.17;;
45342;SDS011;31077;50.872;4.352;2023-03-01T10:24:46;8.70;;;3.90;;
45342;SDS011;31077;50.872;4.352;2023-03-01T10:27:21;5.05;;;2.80;;
45342;SDS011;31077;50.872;4.352;2023-03-01T10:32:31;4.47;;;3.13;;
45342;SDS011;31077;50.872;4.352;2023-03-01T10:34:56;7.07;;;3.33;;
45342;SDS011;31077;50.872;4.352;2023-03-01T10:37:22;6.03;;;3.15;;
45342;SDS011;31077;50.872;4.352;2023-03-01T10:39:54;6.15;;;3.08;;
45342;SDS011;31077;50.872;4.352;2023-03-01T10:44:53;4.57;;;3.25;;
45342;SDS011;31077;50.872;4.352;2023-03-01T10:47:20;4.68;;;3.10;;
45342;SDS011;31077;50.872;4.352;2023-03-01T10:50:00;5.22;;;3.47;;
45342;SDS011;31077;50.872;4.352;2023-03-01T10:54:57;6.90;;;3.40;;
45342;SDS011;31077;50.872;4.352;2023-03-01T10:57:33;5.75;;;2.90;;
45342;SDS011;31077;50.872;4.352;2023-03-01T11:02:50;4.50;;;3.25;;
45342;SDS011;31077;50.872;4.352;2023-03-01T11:05:27;7.32;;;3.45;;
45342;SDS011;31077;50.872;4.352;2023-03-01T11:07:59;16.17;;;3.65;;
45342;SDS011;31077;50.872;4.352;2023-03-01T11:10:29;7.65;;;3.25;;
45342;SDS011;31077;50.872;4.352;2023-03-01T11:13:13;5.35;;;3.33;;
45342;SDS011;31077;50.872;4.352;2023-03-01T11:16:05;6.07;;;3.35;;
45342;SDS011;31077;50.872;4.352;2023-03-01T11:18:35;5.30;;;3.10;;
45342;SDS011;31077;50.872;4.352;2023-03-01T11:21:03;6.68;;;2.88;;
45342;SDS011;31077;50.872;4.352;2023-03-01T11:23:30;5.43;;;3.38;;
45342;SDS011;31077;50.872;4.352;2023-03-01T11:26:07;6.60;;;3.20;;
45342;SDS011;31077;50.872;4.352;2023-03-01T11:28:34;5.05;;;3.40;;
45342;SDS011;31077;50.872;4.352;2023-03-01T11:31:07;4.13;;;3.30;;
45342;SDS011;31077;50.872;4.352;2023-03-01T11:41:49;4.35;;;3.05;;
45342;SDS011;31077;50.872;4.352;2023-03-01T11:44:26;4.30;;;2.90;;
45342;SDS011;31077;50.872;4.352;2023-03-01T11:49:40;4.65;;;3.20;;
45342;SDS011;31077;50.872;4.352;2023-03-01T11:55:19;4.43;;;3.10;;
45342;SDS011;31077;50.872;4.352;2023-03-01T12:00:36;11.60;;;2.95;;
45342;SDS011;31077;50.872;4.352;2023-03-01T12:03:23;6.93;;;2.60;;
45342;SDS011;31077;50.872;4.352;2023-03-01T12:20:36;4.65;;;2.67;;
45342;SDS011;31077;50.872;4.352;2023-03-01T12:23:30;7.22;;;2.60;;
45342;SDS011;31077;50.872;4.352;2023-03-01T12:37:36;4.60;;;2.85;;
45342;SDS011;31077;50.872;4.352;2023-03-01T12:40:20;5.78;;;3.10;;
45342;SDS011;31077;50.872;4.352;2023-03-01T12:50:54;6.30;;;3.30;;
45342;SDS011;31077;50.872;4.352;2023-03-01T12:53:39;5.35;;;3.00;;
45342;SDS011;31077;50.872;4.352;2023-03-01T12:56:25;6.00;;;2.70;;
45342;SDS011;31077;50.872;4.352;2023-03-01T12:58:59;6.90;;;3.00;;
45342;SDS011;31077;50.872;4.352;2023-03-01T13:01:48;4.55;;;2.70;;
45342;SDS011;31077;50.872;4.352;2023-03-01T13:04:43;6.38;;;2.78;;
45342;SDS011;31077;50.872;4.352;2023-03-01T13:19:06;4.50;;;3.00;;
45342;SDS011;31077;50.872;4.352;2023-03-01T13:21:34;4.85;;;2.92;;
45342;SDS011;31077;50.872;4.352;2023-03-01T13:24:00;4.47;;;2.75;;
45342;SDS011;31077;50.872;4.352;2023-03-01T13:26:26;4.97;;;3.22;;
45342;SDS011;31077;50.872;4.352;2023-03-01T13:28:56;4.65;;;3.25;;
45342;SDS011;31077;50.872;4.352;2023-03-01T13:33:53;3.63;;;2.65;;
45342;SDS011;31077;50.872;4.352;2023-03-01T13:39:00;4.05;;;3.22;;
45342;SDS011;31077;50.872;4.352;2023-03-01T13:44:30;7.45;;;3.42;;
45342;SDS011;31077;50.872;4.352;2023-03-01T13:49:47;6.10;;;2.88;;
45342;SDS011;31077;50.872;4.352;2023-03-01T13:55:23;5.00;;;2.95;;
45342;SDS011;31077;50.872;4.352;2023-03-01T14:00:57;4.72;;;3.15;;
45342;SDS011;31077;50.872;4.352;2023-03-01T14:03:29;4.25;;;3.10;;
45342;SDS011;31077;50.872;4.352;2023-03-01T14:06:01;4.70;;;3.05;;
45342;SDS011;31077;50.872;4.352;2023-03-01T14:08:38;5.10;;;3.05;;
45342;SDS011;31077;50.872;4.352;2023-03-01T14:19:35;4.72;;;3.38;;
45342;SDS011;31077;50.872;4.352;2023-03-01T14:22:24;4.22;;;2.78;;
45342;SDS011;31077;50.872;4.352;2023-03-01T14:24:58;3.65;;;2.75;;
45342;SDS011;31077;50.872;4.352;2023-03-01T14:27:27;4.45;;;3.03;;
45342;SDS011;31077;50.872;4.352;2023-03-01T14:30:14;4.63;;;3.17;;
45342;SDS011;31077;50.872;4.352;2023-03-01T14:33:01;4.93;;;3.00;;
45342;SDS011;31077;50.872;4.352;2023-03-01T14:35:30;5.38;;;3.50;;
45342;SDS011;31077;50.872;4.352;2023-03-01T14:37:57;4.20;;;3.13;;
45342;SDS011;31077;50.872;4.352;2023-03-01T14:40:33;4.45;;;3.28;;
45342;SDS011;31077;50.872;4.352;2023-03-01T14:43:03;4.15;;;3.13;;
45342;SDS011;31077;50.872;4.352;2023-03-01T14:45:36;5.05;;;3.30;;
45342;SDS011;31077;50.872;4.352;2023-03-01T14:48:03;4.22;;;3.00;;
45342;SDS011;31077;50.872;4.352;2023-03-01T14:50:31;6.68;;;3.85;;
45342;SDS011;31077;50.872;4.352;2023-03-01T14:53:05;4.37;;;3.07;;
45342;SDS011;31077;50.872;4.352;2023-03-01T14:55:38;4.50;;;3.25;;
45342;SDS011;31077;50.872;4.352;2023-03-01T14:58:11;3.92;;;3.20;;
45342;SDS011;31077;50.872;4.352;2023-03-01T15:00:44;4.07;;;3.05;;
45342;SDS011;31077;50.872;4.352;2023-03-01T15:03:36;4.82;;;3.28;;
45342;SDS011;31077;50.872;4.352;2023-03-01T15:06:06;4.22;;;2.85;;
45342;SDS011;31077;50.872;4.352;2023-03-01T15:08:33;4.03;;;3.08;;
45342;SDS011;31077;50.872;4.352;2023-03-01T15:11:42;4.43;;;3.30;;
45342;SDS011;31077;50.872;4.352;2023-03-01T15:13:58;6.35;;;3.65;;
45342;SDS011;31077;50.872;4.352;2023-03-01T15:16:31;7.43;;;3.05;;
45342;SDS011;31077;50.872;4.352;2023-03-01T15:19:01;4.72;;;2.95;;
45342;SDS011;31077;50.872;4.352;2023-03-01T15:21:30;4.60;;;3.30;;
45342;SDS011;31077;50.872;4.352;2023-03-01T15:24:13;4.60;;;2.90;;
45342;SDS011;31077;50.872;4.352;2023-03-01T15:27:01;5.00;;;3.08;;
45342;SDS011;31077;50.872;4.352;2023-03-01T15:29:31;5.45;;;2.65;;
45342;SDS011;31077;50.872;4.352;2023-03-01T15:32:03;5.47;;;3.10;;
45342;SDS011;31077;50.872;4.352;2023-03-01T15:34:34;4.43;;;3.38;;
45342;SDS011;31077;50.872;4.352;2023-03-01T15:37:04;4.72;;;3.60;;
45342;SDS011;31077;50.872;4.352;2023-03-01T15:39:38;4.82;;;3.05;;
45342;SDS011;31077;50.872;4.352;2023-03-01T15:42:09;4.32;;;3.05;;
45342;SDS011;31077;50.872;4.352;2023-03-01T15:45:06;6.28;;;3.15;;
45342;SDS011;31077;50.872;4.352;2023-03-01T15:47:55;6.03;;;3.33;;
45342;SDS011;31077;50.872;4.352;2023-03-01T15:50:32;6.00;;;3.70;;
45342;SDS011;31077;50.872;4.352;2023-03-01T15:53:00;5.93;;;3.58;;
45342;SDS011;31077;50.872;4.352;2023-03-01T15:55:31;5.05;;;3.25;;
45342;SDS011;31077;50.872;4.352;2023-03-01T15:58:14;5.97;;;3.10;;
45342;SDS011;31077;50.872;4.352;2023-03-01T16:00:46;4.72;;;3.20;;
45342;SDS011;31077;50.872;4.352;2023-03-01T16:03:14;4.05;;;2.88;;
45342;SDS011;31077;50.872;4.352;2023-03-01T16:05:46;5.28;;;3.55;;
45342;SDS011;31077;50.872;4.352;2023-03-01T16:08:13;7.55;;;3.13;;
45342;SDS011;31077;50.872;4.352;2023-03-01T16:10:40;7.20;;;3.53;;
45342;SDS011;31077;50.872;4.352;2023-03-01T16:13:08;4.65;;;2.97;;
45342;SDS011;31077;50.872;4.352;2023-03-01T16:15:35;4.45;;;3.30;;
45342;SDS011;31077;50.872;4.352;2023-03-01T16:18:01;5.55;;;3.38;;
45342;SDS011;31077;50.872;4.352;2023-03-01T16:20:28;6.35;;;3.00;;
45342;SDS011;31077;50.872;4.352;2023-03-01T16:22:55;4.38;;;3.38;;
45342;SDS011;31077;50.872;4.352;2023-03-01T16:25:23;4.97;;;3.45;;
45342;SDS011;31077;50.872;4.352;2023-03-01T16:27:49;3.88;;;3.15;;
45342;SDS011;31077;50.872;4.352;2023-03-01T16:30:17;5.18;;;3.58;;
45342;SDS011;31077;50.872;4.352;2023-03-01T16:32:45;5.55;;;3.50;;
45342;SDS011;31077;50.872;4.352;2023-03-01T16:35:12;4.28;;;3.03;;
45342;SDS011;31077;50.872;4.352;2023-03-01T16:37:40;4.93;;;3.13;;
45342;SDS011;31077;50.872;4.352;2023-03-01T16:40:07;5.10;;;3.33;;
45342;SDS011;31077;50.872;4.352;2023-03-01T16:42:58;5.05;;;3.28;;
45342;SDS011;31077;50.872;4.352;2023-03-01T16:45:28;6.32;;;3.42;;
45342;SDS011;31077;50.872;4.352;2023-03-01T16:47:59;5.95;;;3.47;;
45342;SDS011;31077;50.872;4.352;2023-03-01T16:50:25;4.75;;;3.47;;
45342;SDS011;31077;50.872;4.352;2023-03-01T16:52:51;4.63;;;3.28;;
45342;SDS011;31077;50.872;4.352;2023-03-01T16:55:18;4.95;;;3.47;;
45342;SDS011;31077;50.872;4.352;2023-03-01T16:57:44;6.25;;;3.65;;
45342;SDS011;31077;50.872;4.352;2023-03-01T17:00:10;5.10;;;3.20;;
45342;SDS011;31077;50.872;4.352;2023-03-01T17:02:38;3.63;;;2.80;;
45342;SDS011;31077;50.872;4.352;2023-03-01T17:05:04;4.32;;;3.25;;
45342;SDS011;31077;50.872;4.352;2023-03-01T17:07:31;4.22;;;3.08;;
45342;SDS011;31077;50.872;4.352;2023-03-01T17:10:01;5.15;;;3.58;;
45342;SDS011;31077;50.872;4.352;2023-03-01T17:12:28;4.97;;;3.35;;